Time;durP1;ratioP1;P1;durP2;ratioP2;P2;SDS_P1;SDS_P2;PMS_P1;PMS_P2;Temp;Humidity;BMP_temperature;BMP_pressure;BME280_temperature;BME280_humidity;BME280_pressure;Samples;Min_cycle;Max_cycle;Signal;HPM_P1;HPM_P2
2021/12/10 00:01:05;;;;;;;;;;;0.10;99.90;;;;;;5087759;28;20379;-86
2021/12/10 00:03:33;;;;;;;;;;;0.10;99.90;;;;;;5085791;28;19925;-87
2021/12/10 00:06:01;;;;;;;;;;;-0.40;99.90;;;;;;5086612;28;19947;-87
2021/12/10 00:08:29;;;;;;;;;;;-0.20;99.90;;;;;;5088428;28;19929;-87
2021/12/10 00:10:57;;;;;;;;;;;-0.10;99.90;;;;;;5088523;28;19924;-87
2021/12/10 00:13:24;;;;;;;;;;;0.00;99.90;;;;;;5087490;28;19990;-86
2021/12/10 00:15:54;;;;;;;;;;;0.30;99.90;;;;;;5087097;28;19924;-87
2021/12/10 00:18:23;;;;;;;;;;;-0.70;99.90;;;;;;5087913;28;20390;-88
2021/12/10 00:20:56;;;;;;;;;;;0.00;99.90;;;;;;5094155;28;19962;-86
2021/12/10 00:23:23;;;;;;;;;;;0.40;99.90;;;;;;5101340;28;19913;-85
2021/12/10 00:25:50;;;;;;;;;;;0.10;99.90;;;;;;5101041;28;19925;-85
2021/12/10 00:28:21;;;;;;;;;;;0.10;99.90;;;;;;5099300;28;19925;-86
2021/12/10 00:31:00;;;;;;;;;;;0.20;99.90;;;;;;5100368;28;19930;-88
2021/12/10 00:33:29;;;;;;;;;;;0.30;99.90;;;;;;5100705;28;19928;-84
2021/12/10 00:35:55;;;;;;;;;;;0.20;99.90;;;;;;5100285;28;19909;-84
2021/12/10 00:38:23;;;;;;;;;;;0.10;99.90;;;;;;5101301;28;19929;-85
2021/12/10 00:40:50;;;;;;;;;;;0.10;99.90;;;;;;5100731;28;19912;-86
2021/12/10 00:43:16;;;;;;;;;;;0.00;99.90;;;;;;5094372;28;19924;-86
2021/12/10 00:45:43;;;;;;;;;;;0.10;99.90;;;;;;5097268;28;19919;-86
2021/12/10 00:48:09;;;;;;;;;;;0.10;99.90;;;;;;5101052;28;19912;-85
2021/12/10 00:50:39;;;;;;;;;;;0.00;99.90;;;;;;5100822;28;19925;-87
2021/12/10 00:53:05;;;;;;;;;;;0.10;99.90;;;;;;5094309;28;19925;-86
2021/12/10 00:55:32;;;;;;;;;;;0.00;99.90;;;;;;5090003;28;19932;-87
2021/12/10 00:57:59;;;;;;;;;;;0.10;99.90;;;;;;5090567;28;19924;-88
2021/12/10 01:00:27;;;;;;;;;;;-0.60;99.90;;;;;;5100138;28;19917;-86
2021/12/10 01:02:53;;;;;;;;;;;0.20;99.90;;;;;;5100433;28;19924;-85
2021/12/10 01:05:21;;;;;;;;;;;0.20;99.90;;;;;;5100287;28;19912;-84
2021/12/10 01:07:49;;;;;;;;;;;0.50;99.90;;;;;;5092199;28;19947;-85
2021/12/10 01:10:18;;;;;;;;;;;0.10;99.90;;;;;;5092481;28;19924;-86
2021/12/10 01:12:46;;;;;;;;;;;0.10;99.90;;;;;;5092199;28;19925;-85
2021/12/10 01:15:39;;;;;;;;;;;0.10;99.90;;;;;;5091497;28;19947;-85
2021/12/10 01:23:52;;;;;;;;;;;0.10;99.90;;;;;;5097952;28;19978;-86
2021/12/10 01:26:37;;;;;;;;;;;0.10;99.90;;;;;;5092535;28;19928;-83
2021/12/10 01:29:03;;;;;;;;;;;0.20;99.90;;;;;;5090682;28;19956;-87
2021/12/10 01:31:30;;;;;;;;;;;0.30;99.90;;;;;;5088769;28;19924;-85
2021/12/10 01:33:57;;;;;;;;;;;0.10;99.90;;;;;;5087212;28;19931;-84
2021/12/10 01:36:23;;;;;;;;;;;0.10;99.90;;;;;;5086981;28;20418;-85
2021/12/10 01:38:53;;;;;;;;;;;0.20;99.90;;;;;;5086193;28;19935;-84
2021/12/10 01:41:22;;;;;;;;;;;0.20;99.90;;;;;;5086790;28;19925;-87
2021/12/10 01:43:51;;;;;;;;;;;0.20;99.90;;;;;;5087464;28;19956;-87
2021/12/10 01:46:24;;;;;;;;;;;0.20;99.90;;;;;;5087114;28;19932;-86
2021/12/10 01:48:52;;;;;;;;;;;0.10;99.90;;;;;;5088267;28;19924;-87
2021/12/10 01:51:19;;;;;;;;;;;0.20;99.90;;;;;;5097150;28;19975;-83
2021/12/10 01:53:47;;;;;;;;;;;0.20;99.90;;;;;;5099015;28;19935;-84
2021/12/10 01:56:17;;;;;;;;;;;0.10;99.90;;;;;;5083076;28;19928;-86
2021/12/10 01:58:45;;;;;;;;;;;0.20;99.90;;;;;;5086219;28;19924;-86
2021/12/10 02:01:13;;;;;;;;;;;0.10;99.90;;;;;;5088021;28;19925;-87
2021/12/10 02:03:39;;;;;;;;;;;0.10;99.90;;;;;;5086276;28;19925;-87
2021/12/10 02:06:06;;;;;;;;;;;0.10;99.90;;;;;;5089118;28;20387;-86
2021/12/10 02:08:33;;;;;;;;;;;0.10;99.90;;;;;;5097587;28;19951;-85
2021/12/10 02:10:59;;;;;;;;;;;0.20;99.90;;;;;;5098531;28;19908;-84
2021/12/10 02:13:28;;;;;;;;;;;0.20;99.90;;;;;;5098221;28;19932;-84
2021/12/10 02:15:55;;;;;;;;;;;0.00;99.90;;;;;;5097633;28;19925;-84
2021/12/10 02:18:22;;;;;;;;;;;0.10;99.90;;;;;;5097465;28;19947;-84
2021/12/10 02:20:53;;;;;;;;;;;0.10;99.90;;;;;;5091997;28;19925;-86
2021/12/10 02:23:21;;;;;;;;;;;0.10;99.90;;;;;;5096660;28;19924;-83
2021/12/10 02:25:48;;;;;;;;;;;0.10;99.90;;;;;;5098284;28;19924;-83
2021/12/10 02:28:15;;;;;;;;;;;0.20;99.90;;;;;;5091247;28;19988;-86
2021/12/10 02:30:42;;;;;;;;;;;0.20;99.90;;;;;;5090638;28;19924;-85
2021/12/10 02:33:09;;;;;;;;;;;0.20;99.90;;;;;;5090713;28;19963;-86
2021/12/10 02:35:35;;;;;;;;;;;0.10;99.90;;;;;;5087312;28;19928;-86
2021/12/10 02:38:04;;;;;;;;;;;0.20;99.90;;;;;;5090953;28;19932;-85
2021/12/10 02:40:30;;;;;;;;;;;0.20;99.90;;;;;;5091576;28;19924;-85
2021/12/10 02:42:58;;;;;;;;;;;0.20;99.90;;;;;;5086949;28;19924;-86
2021/12/10 02:45:25;;;;;;;;;;;0.10;99.90;;;;;;5087421;28;19925;-86
2021/12/10 02:47:53;;;;;;;;;;;0.10;99.90;;;;;;5087284;28;19925;-85
2021/12/10 02:50:21;;;;;;;;;;;0.10;99.90;;;;;;5088859;28;19946;-86
2021/12/10 02:52:47;;;;;;;;;;;0.10;99.90;;;;;;5088319;28;19925;-85
2021/12/10 02:55:16;;;;;;;;;;;0.00;99.90;;;;;;5088973;28;19951;-85
2021/12/10 02:57:43;;;;;;;;;;;0.20;99.90;;;;;;5088250;28;19928;-85
2021/12/10 03:00:12;;;;;;;;;;;0.20;99.90;;;;;;5088252;28;20349;-85
2021/12/10 03:02:39;;;;;;;;;;;0.20;99.90;;;;;;5089963;28;19986;-83
2021/12/10 03:05:07;;;;;;;;;;;0.20;99.90;;;;;;5079314;28;19981;-85
2021/12/10 03:07:34;;;;;;;;;;;0.20;99.90;;;;;;5079818;28;19971;-84
2021/12/10 03:10:01;;;;;;;;;;;0.20;99.90;;;;;;5082526;28;19994;-83
2021/12/10 03:12:31;;;;;;;;;;;0.20;99.90;;;;;;5084070;28;20255;-84
2021/12/10 03:14:58;;;;;;;;;;;0.10;99.90;;;;;;5085082;28;19924;-83
2021/12/10 03:17:26;;;;;;;;;;;0.10;99.90;;;;;;5098908;28;19935;-81
2021/12/10 03:19:53;;;;;;;;;;;0.10;99.90;;;;;;5098852;28;19932;-81
2021/12/10 03:22:20;;;;;;;;;;;-1.30;99.90;;;;;;5097205;28;19924;-83
2021/12/10 03:24:47;;;;;;;;;;;0.10;99.90;;;;;;5098387;28;19909;-81
2021/12/10 03:27:15;;;;;;;;;;;0.10;99.90;;;;;;5098839;28;19908;-82
2021/12/10 03:29:43;;;;;;;;;;;0.20;99.90;;;;;;5089222;28;20259;-84
2021/12/10 03:32:12;;;;;;;;;;;0.20;99.90;;;;;;5086769;28;19986;-84
2021/12/10 03:34:39;;;;;;;;;;;0.20;99.90;;;;;;5083478;28;19925;-82
2021/12/10 03:37:06;;;;;;;;;;;0.10;99.90;;;;;;5098960;28;19916;-83
2021/12/10 03:39:33;;;;;;;;;;;0.10;99.90;;;;;;5102405;28;19912;-82
2021/12/10 03:42:00;;;;;;;;;;;0.20;99.90;;;;;;5102296;28;19931;-81
2021/12/10 03:44:27;;;;;;;;;;;0.10;99.90;;;;;;5102410;28;19921;-82
2021/12/10 03:46:56;;;;;;;;;;;-0.20;99.90;;;;;;5102041;28;19935;-84
2021/12/10 03:49:23;;;;;;;;;;;0.10;99.90;;;;;;5100890;28;19913;-84
2021/12/10 03:51:51;;;;;;;;;;;0.10;99.90;;;;;;5097486;28;20269;-86
2021/12/10 03:54:18;;;;;;;;;;;0.60;99.90;;;;;;5091490;28;19925;-86
2021/12/10 03:56:45;;;;;;;;;;;-0.50;99.90;;;;;;5091760;28;19936;-87
2021/12/10 03:59:12;;;;;;;;;;;0.10;99.90;;;;;;5091812;28;19924;-86
2021/12/10 04:01:41;;;;;;;;;;;0.00;99.90;;;;;;5092037;28;19946;-87
2021/12/10 04:04:11;;;;;;;;;;;0.10;99.90;;;;;;5093219;28;19924;-85
2021/12/10 04:06:38;;;;;;;;;;;0.00;99.90;;;;;;5094364;28;19924;-86
2021/12/10 04:09:05;;;;;;;;;;;0.10;99.90;;;;;;5090809;28;19925;-86
2021/12/10 04:11:32;;;;;;;;;;;0.00;99.90;;;;;;5089824;28;20359;-86
2021/12/10 04:13:58;;;;;;;;;;;0.00;99.90;;;;;;5111094;22;19924;-80
2021/12/10 04:16:25;;;;;;;;;;;-0.10;99.90;;;;;;5084490;28;19970;-80
2021/12/10 04:18:54;;;;;;;;;;;-0.10;99.90;;;;;;5082945;28;19932;-80
2021/12/10 04:21:22;;;;;;;;;;;-0.20;99.90;;;;;;5082787;28;19925;-80
2021/12/10 04:23:49;;;;;;;;;;;0.00;99.90;;;;;;5087002;28;19924;-80
2021/12/10 04:26:17;;;;;;;;;;;0.10;99.90;;;;;;5089050;28;19936;-80
2021/12/10 04:28:43;;;;;;;;;;;0.20;99.90;;;;;;5090389;28;19932;-79
2021/12/10 04:31:10;;;;;;;;;;;-0.10;99.90;;;;;;5083859;28;20299;-80
2021/12/10 04:33:36;;;;;;;;;;;0.20;99.90;;;;;;5081280;28;19979;-81
2021/12/10 04:36:05;;;;;;;;;;;0.20;99.90;;;;;;5086102;28;19932;-79
2021/12/10 04:38:33;;;;;;;;;;;0.10;99.90;;;;;;5088058;28;20367;-79
2021/12/10 04:41:01;;;;;;;;;;;-0.20;99.90;;;;;;5086424;28;19931;-80
2021/12/10 04:43:28;;;;;;;;;;;0.00;99.90;;;;;;5084366;28;19971;-80
2021/12/10 04:45:55;;;;;;;;;;;-0.30;99.90;;;;;;5084948;28;19964;-80
2021/12/10 04:48:22;;;;;;;;;;;0.00;99.90;;;;;;5086537;28;19925;-79
2021/12/10 04:50:48;;;;;;;;;;;-0.10;99.90;;;;;;5088316;28;19963;-79
2021/12/10 04:53:15;;;;;;;;;;;0.10;99.90;;;;;;5087730;28;19971;-79
2021/12/10 04:55:43;;;;;;;;;;;-0.10;99.90;;;;;;5085176;28;19924;-79
2021/12/10 04:58:10;;;;;;;;;;;-0.20;99.90;;;;;;5086055;28;19924;-79
2021/12/10 05:00:38;;;;;;;;;;;0.00;99.90;;;;;;5083096;28;19967;-79
2021/12/10 05:03:06;;;;;;;;;;;0.60;99.90;;;;;;5083206;28;20315;-80
2021/12/10 05:05:33;;;;;;;;;;;0.20;99.90;;;;;;5084859;28;19940;-80
2021/12/10 05:08:00;;;;;;;;;;;0.10;99.90;;;;;;5082928;28;19932;-80
2021/12/10 05:10:26;;;;;;;;;;;0.20;99.90;;;;;;5079475;28;19931;-80
2021/12/10 05:12:54;;;;;;;;;;;0.10;99.90;;;;;;5080310;28;19967;-80
2021/12/10 05:15:22;;;;;;;;;;;0.30;99.90;;;;;;5080267;28;19963;-80
2021/12/10 05:17:49;;;;;;;;;;;0.10;99.90;;;;;;5080933;28;19928;-80
2021/12/10 05:20:17;;;;;;;;;;;1.50;99.90;;;;;;5080911;28;19978;-81
2021/12/10 05:22:45;;;;;;;;;;;0.20;99.90;;;;;;5079475;28;19924;-80
2021/12/10 05:25:11;;;;;;;;;;;0.20;99.90;;;;;;5079110;28;19964;-79
2021/12/10 05:27:38;;;;;;;;;;;0.10;99.90;;;;;;5080642;28;19932;-80
2021/12/10 05:30:08;;;;;;;;;;;0.60;99.90;;;;;;5080795;28;19928;-80
2021/12/10 05:32:34;;;;;;;;;;;0.30;99.90;;;;;;5080990;28;19924;-80
2021/12/10 05:35:01;;;;;;;;;;;0.20;99.90;;;;;;5080416;28;20367;-80
2021/12/10 05:37:27;;;;;;;;;;;0.40;99.90;;;;;;5083401;28;19924;-80
2021/12/10 05:39:54;;;;;;;;;;;0.20;99.90;;;;;;5086320;28;19924;-79
2021/12/10 05:42:20;;;;;;;;;;;0.10;99.90;;;;;;5086689;28;19925;-79
2021/12/10 05:44:47;;;;;;;;;;;0.20;99.90;;;;;;5087790;28;20030;-79
2021/12/10 05:47:15;;;;;;;;;;;0.20;99.90;;;;;;5086954;28;19929;-79
2021/12/10 05:49:41;;;;;;;;;;;0.40;99.90;;;;;;5083342;28;19963;-80
2021/12/10 05:52:08;;;;;;;;;;;0.30;99.90;;;;;;5079390;28;19924;-80
2021/12/10 05:54:34;;;;;;;;;;;0.30;99.90;;;;;;5079414;28;19939;-80
2021/12/10 05:57:01;;;;;;;;;;;0.10;99.90;;;;;;5079130;28;20440;-80
2021/12/10 05:59:27;;;;;;;;;;;0.20;99.90;;;;;;5082197;28;19943;-79
2021/12/10 06:01:54;;;;;;;;;;;0.00;99.90;;;;;;5093329;28;19932;-79
2021/12/10 06:04:27;;;;;;;;;;;0.20;99.90;;;;;;5084314;28;19967;-79
2021/12/10 06:06:53;;;;;;;;;;;0.20;99.90;;;;;;5086775;28;19924;-79
2021/12/10 06:09:20;;;;;;;;;;;0.20;99.90;;;;;;5086639;28;19947;-78
2021/12/10 06:11:46;;;;;;;;;;;0.80;99.90;;;;;;5084258;28;20333;-79
2021/12/10 06:14:13;;;;;;;;;;;0.30;99.90;;;;;;5081020;28;19928;-79
2021/12/10 06:16:39;;;;;;;;;;;0.20;99.90;;;;;;5081684;28;19931;-80
2021/12/10 06:19:08;;;;;;;;;;;0.30;99.90;;;;;;5081094;28;19981;-79
2021/12/10 06:21:36;;;;;;;;;;;0.50;99.90;;;;;;5080073;28;19970;-80
2021/12/10 06:24:03;;;;;;;;;;;0.30;99.90;;;;;;5080866;28;19947;-80
2021/12/10 06:26:30;;;;;;;;;;;0.00;99.90;;;;;;5080177;28;19964;-79
2021/12/10 06:28:57;;;;;;;;;;;0.20;99.90;;;;;;5080263;28;19928;-79
2021/12/10 06:31:24;;;;;;;;;;;0.30;99.90;;;;;;5081254;28;19924;-79
2021/12/10 06:33:51;;;;;;;;;;;0.30;99.90;;;;;;5076915;28;19924;-79
2021/12/10 06:36:18;;;;;;;;;;;0.20;99.90;;;;;;5080301;28;19982;-79
2021/12/10 06:38:46;;;;;;;;;;;1.10;99.90;;;;;;5083270;28;19928;-80
2021/12/10 06:41:13;;;;;;;;;;;0.30;99.90;;;;;;5084059;28;19924;-80
2021/12/10 06:43:41;;;;;;;;;;;0.20;99.90;;;;;;5084927;28;19925;-80
2021/12/10 06:46:07;;;;;;;;;;;0.10;99.90;;;;;;5081311;28;19960;-80
2021/12/10 06:48:35;;;;;;;;;;;0.20;99.90;;;;;;5079901;28;19979;-80
2021/12/10 06:51:04;;;;;;;;;;;-0.10;99.90;;;;;;5079883;28;19971;-80
2021/12/10 06:53:31;;;;;;;;;;;0.10;99.90;;;;;;5080087;28;19924;-80
2021/12/10 06:55:59;;;;;;;;;;;0.20;99.90;;;;;;5081711;28;20437;-80
2021/12/10 06:58:28;;;;;;;;;;;1.00;99.90;;;;;;5088369;28;20275;-80
2021/12/10 07:00:56;;;;;;;;;;;0.10;99.90;;;;;;5090451;28;19928;-79
2021/12/10 07:03:24;;;;;;;;;;;0.10;99.90;;;;;;5086183;28;19947;-80
2021/12/10 07:05:51;;;;;;;;;;;0.10;99.90;;;;;;5089932;28;19924;-79
2021/12/10 07:08:18;;;;;;;;;;;0.10;99.90;;;;;;5088748;28;19924;-78
2021/12/10 07:10:45;;;;;;;;;;;0.20;99.90;;;;;;5086459;28;19931;-80
2021/12/10 07:13:13;;;;;;;;;;;;;;;;;;5084348;28;20359;-81
2021/12/10 07:15:42;;;;;;;;;;;0.10;99.90;;;;;;5085432;28;19931;-80
2021/12/10 07:18:10;;;;;;;;;;;0.40;99.90;;;;;;5088286;28;19924;-79
2021/12/10 07:20:36;;;;;;;;;;;0.00;99.90;;;;;;5090020;28;19925;-79
2021/12/10 07:23:03;;;;;;;;;;;0.10;99.90;;;;;;5088442;28;19925;-81
2021/12/10 07:25:29;;;;;;;;;;;0.10;99.90;;;;;;5086405;28;19932;-81
2021/12/10 07:27:56;;;;;;;;;;;0.10;99.90;;;;;;5086772;28;19925;-81
2021/12/10 07:30:24;;;;;;;;;;;0.10;99.90;;;;;;5085612;28;20042;-82
2021/12/10 07:32:52;;;;;;;;;;;0.10;99.90;;;;;;5088680;28;19932;-82
2021/12/10 07:35:18;;;;;;;;;;;0.20;99.90;;;;;;5084466;28;19971;-81
2021/12/10 07:37:45;;;;;;;;;;;0.20;99.90;;;;;;5088727;28;19982;-80
2021/12/10 07:40:14;;;;;;;;;;;0.30;99.90;;;;;;5085587;28;20392;-81
2021/12/10 07:42:41;;;;;;;;;;;0.20;99.90;;;;;;5087175;28;19924;-81
2021/12/10 07:45:08;;;;;;;;;;;0.20;99.90;;;;;;5084802;28;20454;-81
2021/12/10 07:47:36;;;;;;;;;;;0.30;99.90;;;;;;5083720;28;19924;-81
2021/12/10 07:50:05;;;;;;;;;;;0.30;99.90;;;;;;5089906;28;19935;-82
2021/12/10 07:52:34;;;;;;;;;;;0.30;99.90;;;;;;5086401;28;19925;-82
2021/12/10 07:55:01;;;;;;;;;;;0.30;99.90;;;;;;5087233;28;19944;-82
2021/12/10 07:57:29;;;;;;;;;;;-0.30;99.90;;;;;;5087630;28;19924;-81
2021/12/10 07:59:55;;;;;;;;;;;1.50;99.90;;;;;;5089941;28;19947;-81
2021/12/10 08:02:22;;;;;;;;;;;0.30;99.90;;;;;;5096848;28;19925;-80
2021/12/10 08:04:49;;;;;;;;;;;0.30;99.90;;;;;;5090768;28;19924;-81
2021/12/10 08:07:17;;;;;;;;;;;-0.20;99.90;;;;;;5089218;28;19924;-82
2021/12/10 08:09:44;;;;;;;;;;;1.20;99.90;;;;;;5088020;28;19932;-79
2021/12/10 08:12:10;;;;;;;;;;;0.40;99.90;;;;;;5087857;28;19924;-81
2021/12/10 08:14:45;;;;;;;;;;;0.30;99.90;;;;;;5090179;28;20403;-81
2021/12/10 08:17:12;;;;;;;;;;;0.30;99.90;;;;;;5085908;28;19947;-79
2021/12/10 08:19:39;;;;;;;;;;;0.30;99.90;;;;;;5088437;28;19925;-80
2021/12/10 08:22:05;;;;;;;;;;;0.30;99.90;;;;;;5088838;28;20413;-78
2021/12/10 08:24:33;;;;;;;;;;;0.30;99.90;;;;;;5087428;28;19924;-79
2021/12/10 08:26:59;;;;;;;;;;;-0.50;99.90;;;;;;5084195;28;19960;-80
2021/12/10 08:29:26;;;;;;;;;;;0.40;99.90;;;;;;5087757;28;19924;-80
2021/12/10 08:31:53;;;;;;;;;;;0.40;99.90;;;;;;5087192;28;20031;-78
2021/12/10 08:34:20;;;;;;;;;;;0.40;99.90;;;;;;5082911;28;19932;-79
2021/12/10 08:36:46;;;;;;;;;;;0.50;99.90;;;;;;5081939;28;19925;-79
2021/12/10 08:39:13;;;;;;;;;;;0.30;99.90;;;;;;5084372;28;19929;-79
2021/12/10 08:41:41;;;;;;;;;;;0.30;99.90;;;;;;5090941;28;19924;-79
2021/12/10 08:44:08;;;;;;;;;;;0.50;99.90;;;;;;5089742;28;19990;-80
2021/12/10 08:46:35;;;;;;;;;;;0.50;99.90;;;;;;5087339;28;19925;-79
2021/12/10 08:49:02;;;;;;;;;;;0.10;99.90;;;;;;5085633;28;19978;-79
2021/12/10 08:51:30;;;;;;;;;;;0.60;99.90;;;;;;5087205;28;19933;-79
2021/12/10 08:53:57;;;;;;;;;;;0.60;99.90;;;;;;5089534;28;19934;-79
2021/12/10 08:56:23;;;;;;;;;;;0.50;99.90;;;;;;5087407;28;19974;-80
2021/12/10 08:58:52;;;;;;;;;;;0.60;99.90;;;;;;5085222;28;19924;-82
2021/12/10 09:01:19;;;;;;;;;;;0.50;99.90;;;;;;5085263;28;19984;-80
2021/12/10 09:03:48;;;;;;;;;;;0.60;99.90;;;;;;5086717;28;19971;-80
2021/12/10 09:06:14;;;;;;;;;;;0.60;99.90;;;;;;5083624;28;19932;-80
2021/12/10 09:08:41;;;;;;;;;;;0.60;99.90;;;;;;5084119;28;19924;-80
2021/12/10 09:11:08;;;;;;;;;;;1.00;99.90;;;;;;5088507;28;19924;-77
2021/12/10 09:13:35;;;;;;;;;;;0.70;99.90;;;;;;5091263;28;19986;-78
2021/12/10 09:16:05;;;;;;;;;;;0.60;99.90;;;;;;5091876;28;19925;-78
2021/12/10 09:18:33;;;;;;;;;;;0.70;99.90;;;;;;5090769;28;19936;-79
2021/12/10 09:21:01;;;;;;;;;;;0.60;99.90;;;;;;5086359;28;19932;-80
2021/12/10 09:23:29;;;;;;;;;;;0.80;99.90;;;;;;5084238;28;19924;-80
2021/12/10 09:25:59;;;;;;;;;;;0.70;99.90;;;;;;5083877;28;19925;-79
2021/12/10 09:28:26;;;;;;;;;;;0.50;99.90;;;;;;5085724;28;19924;-80
2021/12/10 09:30:54;;;;;;;;;;;0.70;99.90;;;;;;5088288;28;19946;-80
2021/12/10 09:33:22;;;;;;;;;;;0.80;99.90;;;;;;5090160;28;19974;-79
2021/12/10 09:35:48;;;;;;;;;;;0.50;99.90;;;;;;5088033;28;19929;-79
2021/12/10 09:38:16;;;;;;;;;;;0.80;99.90;;;;;;5087981;28;19989;-80
2021/12/10 09:40:47;;;;;;;;;;;0.80;99.90;;;;;;5087005;28;19928;-80
2021/12/10 09:43:13;;;;;;;;;;;0.80;99.90;;;;;;5082838;28;19929;-80
2021/12/10 09:45:41;;;;;;;;;;;0.90;99.90;;;;;;5083236;28;19931;-80
2021/12/10 09:48:09;;;;;;;;;;;0.50;99.90;;;;;;5080624;28;20366;-79
2021/12/10 09:50:38;;;;;;;;;;;0.80;99.90;;;;;;5079730;28;19947;-80
2021/12/10 09:53:08;;;;;;;;;;;0.80;99.90;;;;;;5081902;28;19924;-80
2021/12/10 09:55:35;;;;;;;;;;;0.80;99.90;;;;;;5079578;28;20394;-80
2021/12/10 09:58:02;;;;;;;;;;;0.80;99.90;;;;;;5080429;28;19974;-80
2021/12/10 10:00:32;;;;;;;;;;;1.50;99.90;;;;;;5080122;28;20070;-81
2021/12/10 10:02:59;;;;;;;;;;;0.90;99.90;;;;;;5079759;28;19936;-79
2021/12/10 10:05:27;;;;;;;;;;;0.90;99.90;;;;;;5077975;28;19971;-79
2021/12/10 10:07:56;;;;;;;;;;;0.80;99.90;;;;;;5079911;28;19924;-79
2021/12/10 10:10:23;;;;;;;;;;;0.50;99.90;;;;;;5079310;28;19924;-80
2021/12/10 10:12:52;;;;;;;;;;;0.90;99.90;;;;;;5079904;28;20236;-81
2021/12/10 10:15:21;;;;;;;;;;;0.90;99.90;;;;;;5107771;22;19948;-86
2021/12/10 10:17:48;;;;;;;;;;;0.90;99.90;;;;;;5084869;28;19936;-85
2021/12/10 10:20:16;;;;;;;;;;;0.90;99.90;;;;;;5085144;28;19925;-85
2021/12/10 10:22:44;;;;;;;;;;;1.00;99.90;;;;;;5085918;28;19925;-84
2021/12/10 10:25:13;;;;;;;;;;;1.10;99.90;;;;;;5092273;28;19935;-85
2021/12/10 10:27:40;;;;;;;;;;;1.00;99.90;;;;;;5094452;28;19930;-85
2021/12/10 10:30:09;;;;;;;;;;;1.00;99.90;;;;;;5096501;28;19924;-85
2021/12/10 10:32:36;;;;;;;;;;;1.10;99.90;;;;;;5092290;28;19924;-85
2021/12/10 10:35:04;;;;;;;;;;;1.10;99.90;;;;;;5089780;28;19924;-87
2021/12/10 10:37:32;;;;;;;;;;;1.20;99.90;;;;;;5089272;28;19947;-85
2021/12/10 10:39:59;;;;;;;;;;;1.20;99.90;;;;;;5094346;28;19988;-83
2021/12/10 10:42:31;;;;;;;;;;;1.30;99.90;;;;;;5091728;28;19925;-85
2021/12/10 10:44:59;;;;;;;;;;;1.30;99.90;;;;;;5085573;28;19974;-86
2021/12/10 10:47:26;;;;;;;;;;;1.30;99.90;;;;;;5086068;28;19925;-85
2021/12/10 10:49:54;;;;;;;;;;;1.30;99.90;;;;;;5087844;28;19982;-85
2021/12/10 10:52:24;;;;;;;;;;;1.30;99.90;;;;;;5097278;28;19925;-84
2021/12/10 10:54:54;;;;;;;;;;;1.30;99.90;;;;;;5097992;28;19928;-85
2021/12/10 10:57:24;;;;;;;;;;;1.30;99.90;;;;;;5097583;28;19975;-84
2021/12/10 10:59:56;;;;;;;;;;;0.50;99.90;;;;;;5098649;28;19908;-84
2021/12/10 11:02:24;;;;;;;;;;;1.20;99.90;;;;;;5098493;28;19950;-84
2021/12/10 11:04:51;;;;;;;;;;;1.30;99.90;;;;;;5097903;28;19942;-84
2021/12/10 11:07:20;;;;;;;;;;;1.30;99.90;;;;;;5098073;28;19909;-84
2021/12/10 11:09:48;;;;;;;;;;;1.30;99.90;;;;;;5097808;28;19922;-85
2021/12/10 11:12:16;;;;;;;;;;;1.30;99.90;;;;;;5097483;28;19908;-87
2021/12/10 11:14:44;;;;;;;;;;;1.30;99.90;;;;;;5097254;28;19924;-86
2021/12/10 11:17:15;;;;;;;;;;;1.30;99.90;;;;;;5094184;28;19947;-85
2021/12/10 11:19:49;;;;;;;;;;;1.30;99.90;;;;;;5092336;28;19930;-85
2021/12/10 11:22:16;;;;;;;;;;;1.20;99.90;;;;;;5087667;28;19979;-85
2021/12/10 11:24:45;;;;;;;;;;;1.20;99.90;;;;;;5089053;28;19931;-86
2021/12/10 11:27:14;;;;;;;;;;;1.20;99.90;;;;;;5089634;28;19924;-87
2021/12/10 11:29:45;;;;;;;;;;;1.20;99.90;;;;;;5089333;28;19924;-88
2021/12/10 11:32:15;;;;;;;;;;;1.20;99.90;;;;;;5089105;28;19952;-87
2021/12/10 11:34:43;;;;;;;;;;;1.20;99.90;;;;;;5089576;28;19929;-87
2021/12/10 11:37:10;;;;;;;;;;;1.30;99.90;;;;;;5088205;28;19951;-86
2021/12/10 11:39:45;;;;;;;;;;;1.20;99.90;;;;;;5089502;28;19924;-86
2021/12/10 11:42:34;;;;;;;;;;;1.20;99.90;;;;;;5089384;28;19932;-87
2021/12/10 11:45:18;;;;;;;;;;;1.30;99.90;;;;;;5086960;28;20014;-87
2021/12/10 11:47:50;;;;;;;;;;;1.30;99.90;;;;;;5087774;28;19940;-85
2021/12/10 11:50:17;;;;;;;;;;;1.30;99.90;;;;;;5082847;28;19935;-85
2021/12/10 11:52:44;;;;;;;;;;;1.30;99.90;;;;;;5085063;28;19925;-86
2021/12/10 11:55:10;;;;;;;;;;;1.20;99.90;;;;;;5086816;28;19925;-86
2021/12/10 11:57:39;;;;;;;;;;;1.40;99.90;;;;;;5087606;28;19924;-85
2021/12/10 12:00:08;;;;;;;;;;;1.30;99.90;;;;;;5093373;28;19931;-84
2021/12/10 12:02:36;;;;;;;;;;;1.20;99.90;;;;;;5090287;28;19986;-86
2021/12/10 12:05:06;;;;;;;;;;;1.20;99.90;;;;;;5100444;28;19951;-85
2021/12/10 12:07:35;;;;;;;;;;;1.20;99.90;;;;;;5091019;28;19924;-85
2021/12/10 12:10:17;;;;;;;;;;;1.30;99.90;;;;;;5096175;28;19925;-86
2021/12/10 12:12:45;;;;;;;;;;;1.20;99.90;;;;;;5096221;28;19979;-86
2021/12/10 12:15:14;;;;;;;;;;;1.30;99.90;;;;;;5098654;28;19909;-85
2021/12/10 12:17:42;;;;;;;;;;;1.30;99.90;;;;;;5097617;28;19929;-85
2021/12/10 12:20:24;;;;;;;;;;;0.90;99.90;;;;;;5093426;28;19925;-86
2021/12/10 12:25:43;;;;;;;;;;;1.20;99.90;;;;;;5099120;28;19947;-84
2021/12/10 12:28:10;;;;;;;;;;;1.20;99.90;;;;;;5101344;28;19913;-84
2021/12/10 12:30:49;;;;;;;;;;;1.20;99.90;;;;;;5100694;28;19912;-87
2021/12/10 12:33:16;;;;;;;;;;;0.00;99.90;;;;;;5098598;28;19987;-86
2021/12/10 12:35:44;;;;;;;;;;;1.20;99.90;;;;;;5092673;28;19925;-87
2021/12/10 12:38:14;;;;;;;;;;;1.20;99.90;;;;;;5096774;28;19912;-86
2021/12/10 12:40:41;;;;;;;;;;;1.20;99.90;;;;;;5096531;28;19976;-86
2021/12/10 12:43:07;;;;;;;;;;;1.20;99.90;;;;;;5098036;28;19925;-86
2021/12/10 12:45:35;;;;;;;;;;;1.20;99.90;;;;;;5097669;28;19924;-85
2021/12/10 12:48:04;;;;;;;;;;;1.10;99.90;;;;;;5097244;28;19925;-86
2021/12/10 12:50:34;;;;;;;;;;;1.30;99.90;;;;;;5095592;28;19924;-87
2021/12/10 12:53:04;;;;;;;;;;;1.20;99.90;;;;;;5076329;28;19924;-87
2021/12/10 12:55:33;;;;;;;;;;;1.40;99.90;;;;;;5087811;28;19928;-85
2021/12/10 12:58:13;;;;;;;;;;;1.40;99.90;;;;;;5086628;28;19929;-85
2021/12/10 13:00:46;;;;;;;;;;;1.50;99.90;;;;;;5090479;28;19951;-84
2021/12/10 13:03:15;;;;;;;;;;;1.30;99.90;;;;;;5091984;28;19928;-84
2021/12/10 13:05:47;;;;;;;;;;;1.50;99.90;;;;;;5088007;28;19924;-87
2021/12/10 13:08:16;;;;;;;;;;;1.30;99.90;;;;;;5090136;28;19924;-86
2021/12/10 13:10:49;;;;;;;;;;;1.20;99.90;;;;;;5094751;28;20357;-86
2021/12/10 13:13:24;;;;;;;;;;;1.40;99.90;;;;;;5094470;28;19951;-84
2021/12/10 13:15:52;;;;;;;;;;;1.40;99.90;;;;;;5095259;28;19956;-86
2021/12/10 13:18:20;;;;;;;;;;;1.50;99.90;;;;;;5095878;28;19974;-86
2021/12/10 13:20:52;;;;;;;;;;;1.40;99.90;;;;;;5095452;28;19924;-85
2021/12/10 13:23:23;;;;;;;;;;;1.60;99.90;;;;;;5092364;28;19924;-84
2021/12/10 13:25:50;;;;;;;;;;;1.40;99.90;;;;;;5088628;28;19992;-86
2021/12/10 13:28:17;;;;;;;;;;;1.50;99.90;;;;;;5096703;28;19943;-85
2021/12/10 13:30:45;;;;;;;;;;;1.60;99.90;;;;;;5099390;28;19931;-85
2021/12/10 13:33:14;;;;;;;;;;;1.10;99.90;;;;;;5100054;28;19916;-86
2021/12/10 13:35:41;;;;;;;;;;;1.60;99.90;;;;;;5098308;28;19931;-87
2021/12/10 13:38:07;;;;;;;;;;;1.50;99.90;;;;;;5090245;28;19946;-88
2021/12/10 13:40:36;;;;;;;;;;;1.40;99.90;;;;;;5089522;28;19984;-86
2021/12/10 13:43:04;;;;;;;;;;;1.50;99.90;;;;;;5088964;28;19924;-87
2021/12/10 13:45:32;;;;;;;;;;;1.30;99.90;;;;;;5090928;28;19931;-85
2021/12/10 13:48:05;;;;;;;;;;;1.30;99.90;;;;;;5091366;28;19925;-86
2021/12/10 13:50:33;;;;;;;;;;;1.30;99.90;;;;;;5091378;28;19992;-87
2021/12/10 13:53:00;;;;;;;;;;;1.30;99.90;;;;;;5092931;28;19992;-83
2021/12/10 13:55:28;;;;;;;;;;;1.30;99.90;;;;;;5095159;28;19924;-82
2021/12/10 13:58:19;;;;;;;;;;;1.30;99.90;;;;;;5093461;28;19934;-85
2021/12/10 14:00:49;;;;;;;;;;;1.50;99.90;;;;;;5075028;28;19946;-84
2021/12/10 14:03:15;;;;;;;;;;;1.20;99.90;;;;;;5093395;28;19940;-85
2021/12/10 14:05:42;;;;;;;;;;;1.30;99.90;;;;;;5090865;28;19950;-84
2021/12/10 14:08:12;;;;;;;;;;;1.30;99.90;;;;;;5090182;28;19931;-84
2021/12/10 14:10:41;;;;;;;;;;;1.30;99.90;;;;;;5087594;28;19924;-84
2021/12/10 14:13:09;;;;;;;;;;;1.10;99.90;;;;;;5085076;28;19925;-86
2021/12/10 14:15:43;;;;;;;;;;;1.20;99.90;;;;;;5086895;28;19925;-85
2021/12/10 14:18:14;;;;;;;;;;;1.20;99.90;;;;;;5087026;28;19924;-85
2021/12/10 14:20:43;;;;;;;;;;;1.20;99.90;;;;;;5086886;28;19993;-86
2021/12/10 14:23:13;;;;;;;;;;;1.20;99.90;;;;;;5088297;28;19950;-84
2021/12/10 14:25:42;;;;;;;;;;;1.30;99.90;;;;;;5091406;28;19928;-85
2021/12/10 14:28:10;;;;;;;;;;;1.20;99.90;;;;;;5094623;28;19924;-84
2021/12/10 14:30:38;;;;;;;;;;;1.10;99.90;;;;;;5093700;28;19924;-84
2021/12/10 14:33:07;;;;;;;;;;;1.10;99.90;;;;;;5090081;28;19924;-85
2021/12/10 14:35:48;;;;;;;;;;;1.20;99.90;;;;;;5085956;28;20299;-84
2021/12/10 14:38:17;;;;;;;;;;;1.10;99.90;;;;;;5082255;28;19925;-86
2021/12/10 14:40:48;;;;;;;;;;;1.20;99.90;;;;;;5087003;28;19928;-88
2021/12/10 14:43:17;;;;;;;;;;;1.20;99.90;;;;;;5095719;28;20009;-85